Terminal Aerodrome Forecast
Issued by NWS

Home | Current Version | Previous Version | Text Only | Print | Product List | Glossary On
Versions: 1 2 3 4 5 6 7 8 9 10 11 12 13 14 15 16 17 18 19 20
000
FTUS41 KPBZ 011400 AAA
TAFLBE
TAF AMD
KLBE 011421Z 0114/0212 00000KT 1 1/2SM -SN SCT002 OVC009
      TEMPO 0114/0116 1/2SM SN OVC008
     FM020300 27010KT 3SM -SN OVC010=

USA.gov is the U.S. government's official web portal to all federal, state and local government web resources and services.